Time;durP1;ratioP1;P1;durP2;ratioP2;P2;SDS_P1;SDS_P2;PMS_P1;PMS_P2;Temp;Humidity;BMP_temperature;BMP_pressure;BME280_temperature;BME280_humidity;BME280_pressure;Samples;Min_cycle;Max_cycle;Signal;HPM_P1;HPM_P2
2023/12/10 00:01:22;;;;;;;;;;;18.00;59.60;;;;;;7324151;19;9202;-61
2023/12/10 00:03:52;;;;;;;;;;;18.00;60.30;;;;;;7323999;19;9505;-61
2023/12/10 00:06:21;;;;;;;;;;;18.00;59.80;;;;;;7324323;19;9445;-61
2023/12/10 00:08:52;;;;;;;;;;;18.00;59.70;;;;;;7324337;19;9218;-62
2023/12/10 00:11:22;;;;;;;;;;;18.00;59.70;;;;;;7323277;19;9261;-61
2023/12/10 00:13:51;;;;;;;;;;;17.90;59.70;;;;;;7327216;19;10238;-61
2023/12/10 00:16:40;;;;;;;;;;;17.90;59.80;;;;;;7328352;19;9318;-62
2023/12/10 00:19:09;;;;;;;;;;;17.90;59.80;;;;;;7330329;19;9196;-61
2023/12/10 00:21:58;;;;;;;;;;;17.90;59.80;;;;;;7329309;19;9549;-61
2023/12/10 00:24:30;;;;;;;;;;;17.90;59.90;;;;;;7329659;19;9421;-61
2023/12/10 00:26:59;;;;;;;;;;;17.90;59.90;;;;;;7330029;19;9205;-61
2023/12/10 00:29:28;;;;;;;;;;;17.90;59.90;;;;;;7329270;19;9212;-61
2023/12/10 00:31:57;;;;;;;;;;;17.90;59.80;;;;;;7330037;19;9187;-61
2023/12/10 00:34:26;;;;;;;;;;;17.90;59.70;;;;;;7329589;19;10076;-61
2023/12/10 00:36:56;;;;;;;;;;;18.00;59.70;;;;;;7329972;19;9466;-61
2023/12/10 00:39:25;;;;;;;;;;;18.00;59.60;;;;;;7329627;19;9386;-61
2023/12/10 00:41:58;;;;;;;;;;;18.10;59.50;;;;;;7330097;19;9225;-61
2023/12/10 00:44:27;;;;;;;;;;;18.10;59.50;;;;;;7330128;19;9259;-61
2023/12/10 00:46:56;;;;;;;;;;;18.20;59.30;;;;;;7329072;19;10809;-61
2023/12/10 00:49:25;;;;;;;;;;;18.30;59.30;;;;;;7329822;19;9565;-61
2023/12/10 00:51:55;;;;;;;;;;;18.30;59.10;;;;;;7329880;19;9386;-61
2023/12/10 00:54:25;;;;;;;;;;;18.40;59.10;;;;;;7329014;19;9198;-61
2023/12/10 00:56:56;;;;;;;;;;;18.50;59.00;;;;;;7328207;19;9524;-61
2023/12/10 00:59:26;;;;;;;;;;;18.60;59.00;;;;;;7329347;19;9469;-61
2023/12/10 01:01:55;;;;;;;;;;;18.60;58.80;;;;;;7328391;19;10319;-61
2023/12/10 01:04:25;;;;;;;;;;;18.70;58.80;;;;;;7329753;19;9482;-61
2023/12/10 01:06:54;;;;;;;;;;;18.80;58.80;;;;;;7328741;19;9292;-61
2023/12/10 01:09:23;;;;;;;;;;;18.80;58.60;;;;;;7328833;19;9295;-61
2023/12/10 01:11:52;;;;;;;;;;;18.80;58.60;;;;;;7328893;19;9276;-61
2023/12/10 01:14:24;;;;;;;;;;;18.80;58.50;;;;;;7329473;19;9323;-61
2023/12/10 01:16:53;;;;;;;;;;;18.80;58.40;;;;;;7329293;19;10283;-61
2023/12/10 01:19:22;;;;;;;;;;;18.90;58.40;;;;;;7327785;19;9183;-61
2023/12/10 01:22:11;;;;;;;;;;;18.90;58.40;;;;;;7327045;19;9276;-61
2023/12/10 01:25:00;;;;;;;;;;;18.90;58.40;;;;;;7326761;19;9500;-61
2023/12/10 01:27:49;;;;;;;;;;;18.80;58.30;;;;;;7326854;19;10270;-61
2023/12/10 01:30:23;;;;;;;;;;;18.80;58.30;;;;;;7327660;19;9119;-61
2023/12/10 01:32:54;;;;;;;;;;;18.80;58.20;;;;;;7328709;19;9573;-61
2023/12/10 01:35:23;;;;;;;;;;;18.80;58.30;;;;;;7329141;19;9265;-61
2023/12/10 01:37:52;;;;;;;;;;;18.80;58.30;;;;;;7328181;19;9211;-61
2023/12/10 01:40:22;;;;;;;;;;;18.80;58.30;;;;;;7328454;19;9372;-61
2023/12/10 01:42:53;;;;;;;;;;;18.80;58.30;;;;;;7328594;19;9674;-61
2023/12/10 01:45:25;;;;;;;;;;;18.70;58.30;;;;;;7327209;19;9205;-61
2023/12/10 01:47:55;;;;;;;;;;;18.70;58.30;;;;;;7328039;19;9612;-61
2023/12/10 01:50:25;;;;;;;;;;;18.60;58.40;;;;;;7327493;19;9390;-61
2023/12/10 01:53:16;;;;;;;;;;;18.60;58.40;;;;;;7326464;19;9197;-61
2023/12/10 01:56:07;;;;;;;;;;;18.60;58.50;;;;;;7326391;19;9324;-61
2023/12/10 01:58:38;;;;;;;;;;;18.50;58.50;;;;;;7326420;19;9509;-61
2023/12/10 02:01:11;;;;;;;;;;;18.50;58.70;;;;;;7327862;19;9444;-61
2023/12/10 02:03:53;;;;;;;;;;;18.40;58.60;;;;;;7328087;19;9474;-61
2023/12/10 02:06:42;;;;;;;;;;;18.40;58.70;;;;;;7325562;19;9309;-61
2023/12/10 02:09:27;;;;;;;;;;;18.40;58.80;;;;;;7327302;19;9490;-61
2023/12/10 02:11:56;;;;;;;;;;;18.40;58.90;;;;;;7327825;19;9544;-61
2023/12/10 02:14:26;;;;;;;;;;;18.30;58.90;;;;;;7326555;19;9457;-62
2023/12/10 02:16:57;;;;;;;;;;;18.30;59.00;;;;;;7328085;19;10369;-61
2023/12/10 02:19:26;;;;;;;;;;;18.20;59.10;;;;;;7326168;19;9205;-62
2023/12/10 02:21:55;;;;;;;;;;;18.20;59.00;;;;;;7327174;19;10311;-61
2023/12/10 02:24:31;;;;;;;;;;;18.20;59.10;;;;;;7326772;19;9472;-61
2023/12/10 02:27:03;;;;;;;;;;;18.10;59.20;;;;;;7327222;19;9469;-61
2023/12/10 02:29:33;;;;;;;;;;;18.10;59.20;;;;;;7326591;19;9264;-61
2023/12/10 02:32:22;;;;;;;;;;;18.10;59.30;;;;;;7324977;19;9286;-61
2023/12/10 02:34:51;;;;;;;;;;;18.00;59.30;;;;;;7327546;19;9393;-61
2023/12/10 02:37:40;;;;;;;;;;;18.00;59.30;;;;;;7323436;19;9370;-61
2023/12/10 02:40:29;;;;;;;;;;;18.00;59.30;;;;;;7324869;19;9502;-62
2023/12/10 02:43:02;;;;;;;;;;;18.00;59.40;;;;;;7326458;19;10558;-61
2023/12/10 02:45:31;;;;;;;;;;;18.00;59.50;;;;;;7326071;19;9513;-61
2023/12/10 02:48:01;;;;;;;;;;;17.90;59.50;;;;;;7326308;19;9327;-62
2023/12/10 02:50:30;;;;;;;;;;;17.90;59.50;;;;;;7325601;19;9506;-61
2023/12/10 02:53:00;;;;;;;;;;;17.90;59.50;;;;;;7327327;19;9515;-61
2023/12/10 02:55:29;;;;;;;;;;;17.90;59.60;;;;;;7326214;19;9182;-61
2023/12/10 02:58:01;;;;;;;;;;;17.90;59.60;;;;;;7325724;19;9646;-61
2023/12/10 03:00:30;;;;;;;;;;;17.90;59.60;;;;;;7326384;19;9597;-61
2023/12/10 03:02:59;;;;;;;;;;;17.90;59.60;;;;;;7326383;19;9396;-61
2023/12/10 03:05:28;;;;;;;;;;;17.90;59.50;;;;;;7325872;19;9613;-61
2023/12/10 03:07:57;;;;;;;;;;;17.90;59.50;;;;;;7325463;19;9469;-61
2023/12/10 03:10:26;;;;;;;;;;;18.00;59.40;;;;;;7326235;19;9640;-61
2023/12/10 03:12:55;;;;;;;;;;;18.00;59.40;;;;;;7325443;19;9461;-61
2023/12/10 03:15:27;;;;;;;;;;;18.10;59.40;;;;;;7325416;19;9207;-61
2023/12/10 03:17:56;;;;;;;;;;;18.20;59.20;;;;;;7325840;19;9222;-62
2023/12/10 03:20:25;;;;;;;;;;;18.20;59.20;;;;;;7325834;19;9490;-62
2023/12/10 03:22:54;;;;;;;;;;;18.30;59.10;;;;;;7322118;19;9552;-61
2023/12/10 03:25:23;;;;;;;;;;;18.40;59.00;;;;;;7325419;19;9349;-62
2023/12/10 03:27:52;;;;;;;;;;;18.40;59.60;;;;;;7323843;19;9353;-61
2023/12/10 03:30:21;;;;;;;;;;;18.50;58.80;;;;;;7325707;19;9321;-61
2023/12/10 03:32:53;;;;;;;;;;;18.50;58.80;;;;;;7325549;19;10614;-61
2023/12/10 03:35:22;;;;;;;;;;;18.60;58.70;;;;;;7324445;19;9533;-61
2023/12/10 03:37:51;;;;;;;;;;;18.70;58.60;;;;;;7325084;19;9363;-61
2023/12/10 03:40:20;;;;;;;;;;;18.70;58.50;;;;;;7324364;19;9414;-62
2023/12/10 03:42:50;;;;;;;;;;;18.80;58.40;;;;;;7324441;19;9239;-62
2023/12/10 03:45:19;;;;;;;;;;;18.80;58.40;;;;;;7324849;19;9237;-61
2023/12/10 03:47:49;;;;;;;;;;;18.90;58.40;;;;;;7327868;19;9292;-62
2023/12/10 03:50:21;;;;;;;;;;;18.90;58.30;;;;;;7330889;19;9270;-62
2023/12/10 03:52:50;;;;;;;;;;;18.90;58.30;;;;;;7331481;19;9546;-61
2023/12/10 03:55:17;;;;;;;;;;;18.90;58.30;;;;;;7330431;19;10366;-62
2023/12/10 03:57:48;;;;;;;;;;;18.90;58.10;;;;;;7330586;19;9476;-61
2023/12/10 04:00:18;;;;;;;;;;;18.90;58.10;;;;;;7331201;19;9516;-61
2023/12/10 04:02:47;;;;;;;;;;;18.90;58.10;;;;;;7330071;19;9416;-61
2023/12/10 04:05:16;;;;;;;;;;;18.90;58.20;;;;;;7330854;19;9497;-62
2023/12/10 04:07:50;;;;;;;;;;;18.90;58.20;;;;;;7330614;19;10331;-61
2023/12/10 04:10:19;;;;;;;;;;;18.80;58.10;;;;;;7330534;19;9462;-62
2023/12/10 04:12:48;;;;;;;;;;;18.80;58.20;;;;;;7330332;19;9181;-61
2023/12/10 04:15:18;;;;;;;;;;;18.90;58.30;;;;;;7330432;19;9530;-61
2023/12/10 04:17:47;;;;;;;;;;;18.80;58.20;;;;;;7331295;19;9442;-61
2023/12/10 04:20:16;;;;;;;;;;;18.80;58.30;;;;;;7329673;19;11171;-62
2023/12/10 04:22:47;;;;;;;;;;;18.70;58.30;;;;;;7330539;19;10091;-62
2023/12/10 04:25:17;;;;;;;;;;;18.70;58.30;;;;;;7329503;19;9604;-61
2023/12/10 04:27:43;;;;;;;;;;;18.70;58.40;;;;;;7330283;19;9474;-62
2023/12/10 04:30:14;;;;;;;;;;;18.60;58.50;;;;;;7328914;19;10338;-62
2023/12/10 04:32:43;;;;;;;;;;;18.60;58.50;;;;;;7330034;19;9395;-62
2023/12/10 04:35:13;;;;;;;;;;;18.50;58.50;;;;;;7329414;19;9289;-61
2023/12/10 04:37:42;;;;;;;;;;;18.50;58.60;;;;;;7330544;19;9453;-62
2023/12/10 04:40:14;;;;;;;;;;;18.50;58.80;;;;;;7328866;19;9444;-61
2023/12/10 04:42:44;;;;;;;;;;;18.40;58.70;;;;;;7330083;19;9418;-62
2023/12/10 04:45:13;;;;;;;;;;;18.40;58.80;;;;;;7329974;19;9565;-61
2023/12/10 04:47:42;;;;;;;;;;;18.30;58.90;;;;;;7329307;19;9760;-62
2023/12/10 04:50:11;;;;;;;;;;;18.30;59.00;;;;;;7329750;19;10794;-61
2023/12/10 04:53:00;;;;;;;;;;;18.30;59.10;;;;;;7327137;19;9261;-61
2023/12/10 04:55:33;;;;;;;;;;;18.20;59.10;;;;;;7330132;19;9604;-61
2023/12/10 04:58:02;;;;;;;;;;;18.20;59.10;;;;;;7328668;19;9599;-61
2023/12/10 05:00:31;;;;;;;;;;;18.20;59.30;;;;;;7328166;19;9616;-62
2023/12/10 05:03:00;;;;;;;;;;;18.10;59.20;;;;;;7328569;19;9601;-61
2023/12/10 05:05:29;;;;;;;;;;;18.10;59.30;;;;;;7329733;19;9648;-61
2023/12/10 05:07:59;;;;;;;;;;;18.10;59.30;;;;;;7328700;19;10378;-61
2023/12/10 05:10:28;;;;;;;;;;;18.10;59.40;;;;;;7329219;19;9555;-61
2023/12/10 05:12:59;;;;;;;;;;;18.00;59.40;;;;;;7329124;19;9560;-61
2023/12/10 05:15:28;;;;;;;;;;;18.00;59.50;;;;;;7328429;19;9464;-61
2023/12/10 05:17:58;;;;;;;;;;;18.00;59.60;;;;;;7329209;19;9462;-61
2023/12/10 05:20:27;;;;;;;;;;;18.00;59.60;;;;;;7328619;19;9361;-61
2023/12/10 05:22:56;;;;;;;;;;;17.90;59.70;;;;;;7328686;19;9474;-61
2023/12/10 05:25:27;;;;;;;;;;;17.90;59.70;;;;;;7328728;19;10846;-61
2023/12/10 05:27:59;;;;;;;;;;;17.90;60.40;;;;;;7328744;19;9159;-61
2023/12/10 05:30:28;;;;;;;;;;;17.90;59.80;;;;;;7327850;19;9225;-61
2023/12/10 05:32:57;;;;;;;;;;;17.90;59.80;;;;;;7329306;19;9507;-61
2023/12/10 05:35:26;;;;;;;;;;;17.80;59.90;;;;;;7327790;19;10678;-61
2023/12/10 05:37:55;;;;;;;;;;;17.80;59.80;;;;;;7328674;19;9493;-61
2023/12/10 05:40:25;;;;;;;;;;;17.90;59.90;;;;;;7328594;19;9728;-61
2023/12/10 05:42:55;;;;;;;;;;;17.90;59.80;;;;;;7328851;19;9229;-61
2023/12/10 05:45:27;;;;;;;;;;;17.90;59.70;;;;;;7328220;19;9468;-61
2023/12/10 05:47:56;;;;;;;;;;;18.00;59.70;;;;;;7327963;19;9329;-61
2023/12/10 05:50:26;;;;;;;;;;;18.00;59.60;;;;;;7328102;19;10576;-61
2023/12/10 05:52:55;;;;;;;;;;;18.10;59.50;;;;;;7328149;19;9553;-61
2023/12/10 05:55:24;;;;;;;;;;;18.10;59.40;;;;;;7328934;19;9308;-61
2023/12/10 05:57:54;;;;;;;;;;;18.20;59.30;;;;;;7327423;19;9486;-61
2023/12/10 06:00:26;;;;;;;;;;;18.30;59.30;;;;;;7328448;19;10762;-61
2023/12/10 06:02:55;;;;;;;;;;;18.40;59.20;;;;;;7326999;19;9238;-61
2023/12/10 06:05:24;;;;;;;;;;;18.40;59.10;;;;;;7327250;19;9482;-61
2023/12/10 06:07:53;;;;;;;;;;;18.50;59.10;;;;;;7327710;19;9319;-61
2023/12/10 06:10:22;;;;;;;;;;;18.60;59.00;;;;;;7328335;19;10644;-61
2023/12/10 06:12:51;;;;;;;;;;;18.60;58.90;;;;;;7327608;19;9236;-61
2023/12/10 06:15:20;;;;;;;;;;;18.70;58.90;;;;;;7327302;19;9656;-61
2023/12/10 06:17:52;;;;;;;;;;;18.70;58.80;;;;;;7327771;19;9239;-61
2023/12/10 06:20:21;;;;;;;;;;;18.80;58.80;;;;;;7327339;19;9562;-61
2023/12/10 06:22:50;;;;;;;;;;;18.80;58.70;;;;;;7327690;19;9628;-61
2023/12/10 06:25:19;;;;;;;;;;;18.90;58.70;;;;;;7326833;19;9444;-61
2023/12/10 06:27:48;;;;;;;;;;;18.90;58.60;;;;;;7328338;19;9386;-61
2023/12/10 06:30:17;;;;;;;;;;;18.90;58.50;;;;;;7326723;19;9500;-61
2023/12/10 06:32:46;;;;;;;;;;;18.90;58.50;;;;;;7327327;19;9600;-61
2023/12/10 06:35:18;;;;;;;;;;;18.90;58.50;;;;;;7326469;19;9597;-61
2023/12/10 06:37:47;;;;;;;;;;;18.90;58.50;;;;;;7327284;19;9568;-61
2023/12/10 06:40:16;;;;;;;;;;;18.90;58.50;;;;;;7326974;19;9269;-61
2023/12/10 06:42:45;;;;;;;;;;;18.90;58.50;;;;;;7327353;19;9647;-61
2023/12/10 06:45:14;;;;;;;;;;;18.90;58.60;;;;;;7326118;19;9303;-61
2023/12/10 06:47:43;;;;;;;;;;;18.90;58.60;;;;;;7327294;19;9592;-62
2023/12/10 06:50:12;;;;;;;;;;;18.80;58.60;;;;;;7325684;19;10434;-62
2023/12/10 06:52:44;;;;;;;;;;;18.80;58.70;;;;;;7326548;19;9471;-62
2023/12/10 06:55:13;;;;;;;;;;;18.80;58.70;;;;;;7326981;19;9616;-62
2023/12/10 06:57:42;;;;;;;;;;;18.80;58.80;;;;;;7326023;19;9578;-62
2023/12/10 07:00:14;;;;;;;;;;;18.70;58.80;;;;;;7326691;19;9598;-62
2023/12/10 07:02:43;;;;;;;;;;;18.70;58.90;;;;;;7326641;19;9306;-62
2023/12/10 07:05:12;;;;;;;;;;;18.60;58.90;;;;;;7326323;19;9368;-62
2023/12/10 07:07:44;;;;;;;;;;;18.60;59.00;;;;;;7325928;19;9413;-62
2023/12/10 07:10:14;;;;;;;;;;;18.50;59.10;;;;;;7326283;19;9634;-62
2023/12/10 07:12:43;;;;;;;;;;;18.50;59.20;;;;;;7326033;19;9483;-62
2023/12/10 07:15:12;;;;;;;;;;;18.50;59.20;;;;;;7326200;19;9483;-62
2023/12/10 07:17:41;;;;;;;;;;;18.40;59.30;;;;;;7325352;19;9479;-62
2023/12/10 07:20:12;;;;;;;;;;;18.40;59.40;;;;;;7326051;19;9265;-62
2023/12/10 07:22:43;;;;;;;;;;;18.30;59.40;;;;;;7324984;19;9625;-62
2023/12/10 07:25:13;;;;;;;;;;;18.30;59.50;;;;;;7325066;19;9563;-62
2023/12/10 07:27:42;;;;;;;;;;;18.30;59.60;;;;;;7324798;19;10332;-63
2023/12/10 07:30:11;;;;;;;;;;;18.20;59.60;;;;;;7325104;19;9619;-62
2023/12/10 07:32:41;;;;;;;;;;;18.20;59.70;;;;;;7325235;19;9169;-62
2023/12/10 07:35:10;;;;;;;;;;;18.20;59.90;;;;;;7324612;19;10835;-62
2023/12/10 07:37:39;;;;;;;;;;;18.10;59.90;;;;;;7325348;19;9686;-62
2023/12/10 07:40:13;;;;;;;;;;;18.10;59.90;;;;;;7324660;19;9297;-63
2023/12/10 07:42:42;;;;;;;;;;;18.10;60.00;;;;;;7324829;19;9183;-62
2023/12/10 07:45:12;;;;;;;;;;;18.10;60.10;;;;;;7324444;19;9410;-62
2023/12/10 07:47:41;;;;;;;;;;;18.00;60.00;;;;;;7324313;19;9473;-63
2023/12/10 07:50:11;;;;;;;;;;;18.00;60.00;;;;;;7324516;19;9275;-62
2023/12/10 07:52:40;;;;;;;;;;;18.00;60.10;;;;;;7324539;19;9251;-62
2023/12/10 07:55:12;;;;;;;;;;;18.00;60.10;;;;;;7324797;19;9625;-62
2023/12/10 07:57:41;;;;;;;;;;;18.00;60.20;;;;;;7323598;19;9554;-62
2023/12/10 08:00:13;;;;;;;;;;;17.90;60.20;;;;;;7324435;19;10812;-62
2023/12/10 08:02:42;;;;;;;;;;;17.90;60.30;;;;;;7322663;19;10644;-62
2023/12/10 08:05:11;;;;;;;;;;;17.90;60.40;;;;;;7324660;19;9641;-62
2023/12/10 08:07:40;;;;;;;;;;;17.90;60.40;;;;;;7322943;19;9461;-62
2023/12/10 08:10:12;;;;;;;;;;;17.80;60.30;;;;;;7324396;19;9454;-62
2023/12/10 08:12:41;;;;;;;;;;;17.90;60.40;;;;;;7323420;19;10370;-63
2023/12/10 08:15:11;;;;;;;;;;;17.90;60.40;;;;;;7323987;19;9588;-62
2023/12/10 08:17:40;;;;;;;;;;;17.90;60.30;;;;;;7322820;19;9586;-62
2023/12/10 08:20:11;;;;;;;;;;;17.90;60.30;;;;;;7323884;19;9469;-62
2023/12/10 08:22:40;;;;;;;;;;;18.00;60.30;;;;;;7323642;19;9233;-62
2023/12/10 08:25:12;;;;;;;;;;;18.00;60.20;;;;;;7323161;19;9589;-62
2023/12/10 08:27:41;;;;;;;;;;;18.00;60.10;;;;;;7323336;19;9235;-62
2023/12/10 08:30:11;;;;;;;;;;;18.10;59.90;;;;;;7322012;19;9277;-62
2023/12/10 08:32:41;;;;;;;;;;;18.20;59.90;;;;;;7323153;19;9203;-62
2023/12/10 08:35:11;;;;;;;;;;;18.30;59.80;;;;;;7326442;19;9442;-62
2023/12/10 08:37:40;;;;;;;;;;;18.30;59.80;;;;;;7329962;19;9158;-62
2023/12/10 08:40:14;;;;;;;;;;;18.40;59.70;;;;;;7329788;19;9165;-62
2023/12/10 08:42:43;;;;;;;;;;;18.50;59.60;;;;;;7329523;19;9259;-62
2023/12/10 08:45:12;;;;;;;;;;;18.50;59.40;;;;;;7328617;19;9748;-62
2023/12/10 08:47:42;;;;;;;;;;;18.60;59.40;;;;;;7329315;19;10412;-62
2023/12/10 08:50:13;;;;;;;;;;;18.70;59.40;;;;;;7329211;19;9620;-62
2023/12/10 08:52:42;;;;;;;;;;;18.70;59.20;;;;;;7328782;19;9442;-62
2023/12/10 08:55:13;;;;;;;;;;;18.80;59.20;;;;;;7329238;19;9425;-62
2023/12/10 08:57:43;;;;;;;;;;;18.80;59.00;;;;;;7328437;19;9621;-62
2023/12/10 09:00:15;;;;;;;;;;;18.90;59.10;;;;;;7328701;19;9604;-62
2023/12/10 09:02:44;;;;;;;;;;;18.90;59.10;;;;;;7328473;19;9443;-62
2023/12/10 09:05:13;;;;;;;;;;;18.90;59.00;;;;;;7328865;19;9445;-62
2023/12/10 09:07:43;;;;;;;;;;;18.90;58.90;;;;;;7328688;19;9276;-62
2023/12/10 09:10:15;;;;;;;;;;;18.90;58.90;;;;;;7328995;19;9473;-62
2023/12/10 09:12:45;;;;;;;;;;;18.90;58.90;;;;;;7328618;19;9616;-62
2023/12/10 09:15:14;;;;;;;;;;;18.90;58.90;;;;;;7328303;19;9123;-62
2023/12/10 09:17:43;;;;;;;;;;;18.90;58.90;;;;;;7328774;19;9747;-62
2023/12/10 09:20:13;;;;;;;;;;;18.90;58.90;;;;;;7328251;19;10901;-62
2023/12/10 09:22:42;;;;;;;;;;;18.90;58.90;;;;;;7328022;19;9432;-62
2023/12/10 09:25:11;;;;;;;;;;;18.90;59.00;;;;;;7328018;19;9494;-62
2023/12/10 09:27:43;;;;;;;;;;;18.80;59.00;;;;;;7328501;19;9194;-62
2023/12/10 09:30:32;;;;;;;;;;;18.80;59.00;;;;;;7326265;19;9509;-62
2023/12/10 09:33:01;;;;;;;;;;;18.80;59.20;;;;;;7328612;19;9473;-62
2023/12/10 09:35:30;;;;;;;;;;;18.80;59.20;;;;;;7327673;19;9724;-62
2023/12/10 09:37:59;;;;;;;;;;;18.70;59.20;;;;;;7328224;19;9314;-62
2023/12/10 09:40:28;;;;;;;;;;;18.70;59.30;;;;;;7327094;19;10699;-62
2023/12/10 09:43:01;;;;;;;;;;;18.60;59.30;;;;;;7327772;19;9587;-62
2023/12/10 09:45:30;;;;;;;;;;;18.60;59.40;;;;;;7326471;19;9143;-62
2023/12/10 09:48:00;;;;;;;;;;;18.60;59.50;;;;;;7327199;19;10696;-62
2023/12/10 09:50:29;;;;;;;;;;;18.50;59.60;;;;;;7327443;19;9166;-62
2023/12/10 09:53:00;;;;;;;;;;;18.50;59.70;;;;;;7326497;19;9412;-61
2023/12/10 09:55:30;;;;;;;;;;;18.50;59.70;;;;;;7327814;19;10387;-62
2023/12/10 09:58:01;;;;;;;;;;;18.40;59.70;;;;;;7326040;19;10368;-62
2023/12/10 10:00:31;;;;;;;;;;;18.40;59.90;;;;;;7327210;19;10541;-62
2023/12/10 10:03:04;;;;;;;;;;;18.40;60.00;;;;;;7326930;19;9327;-62
2023/12/10 10:05:35;;;;;;;;;;;18.30;60.00;;;;;;7327690;19;9312;-62
2023/12/10 10:08:04;;;;;;;;;;;18.30;60.00;;;;;;7327419;19;9449;-62
2023/12/10 10:10:33;;;;;;;;;;;18.30;60.20;;;;;;7327628;19;9499;-62
2023/12/10 10:13:08;;;;;;;;;;;18.20;60.20;;;;;;7326844;19;9201;-62
2023/12/10 10:15:37;;;;;;;;;;;18.20;60.80;;;;;;7325806;19;9285;-62
2023/12/10 10:18:09;;;;;;;;;;;18.10;60.20;;;;;;7327325;19;9508;-62
2023/12/10 10:20:41;;;;;;;;;;;18.10;60.40;;;;;;7326491;19;9744;-62
2023/12/10 10:23:10;;;;;;;;;;;18.10;60.30;;;;;;7326241;19;9251;-62
2023/12/10 10:25:42;;;;;;;;;;;18.10;60.40;;;;;;7326470;19;9442;-62
2023/12/10 10:28:14;;;;;;;;;;;18.10;60.50;;;;;;7325196;19;9258;-62
2023/12/10 10:30:44;;;;;;;;;;;18.10;60.50;;;;;;7326829;19;9472;-62
2023/12/10 10:33:16;;;;;;;;;;;18.00;60.40;;;;;;7326302;19;9507;-62
2023/12/10 10:36:06;;;;;;;;;;;18.00;60.40;;;;;;7325299;19;9501;-62
2023/12/10 10:38:36;;;;;;;;;;;18.00;60.50;;;;;;7325623;19;10778;-62
2023/12/10 10:41:06;;;;;;;;;;;18.00;60.50;;;;;;7325332;19;9364;-62
2023/12/10 10:43:37;;;;;;;;;;;18.00;60.60;;;;;;7325894;19;9447;-62
2023/12/10 10:46:09;;;;;;;;;;;18.00;60.60;;;;;;7326627;19;9185;-62
2023/12/10 10:48:41;;;;;;;;;;;17.90;60.60;;;;;;7326359;19;9444;-62
2023/12/10 10:51:11;;;;;;;;;;;17.90;61.30;;;;;;7325680;19;9232;-61
2023/12/10 10:53:42;;;;;;;;;;;17.90;60.80;;;;;;7325972;19;9461;-62
2023/12/10 10:56:12;;;;;;;;;;;17.90;60.80;;;;;;7324131;19;9602;-62
2023/12/10 10:58:45;;;;;;;;;;;17.90;60.80;;;;;;7324904;19;9292;-62
2023/12/10 11:01:39;;;;;;;;;;;17.90;60.80;;;;;;7325002;19;9731;-62
2023/12/10 11:04:08;;;;;;;;;;;17.90;60.80;;;;;;7325045;19;9521;-62
2023/12/10 11:06:38;;;;;;;;;;;17.90;60.80;;;;;;7326680;19;9534;-62
2023/12/10 11:09:07;;;;;;;;;;;17.90;60.70;;;;;;7325651;19;9294;-62
2023/12/10 11:11:41;;;;;;;;;;;18.00;60.70;;;;;;7325785;19;9329;-63
2023/12/10 11:14:33;;;;;;;;;;;18.10;60.60;;;;;;7324704;19;9684;-62
2023/12/10 11:17:08;;;;;;;;;;;18.10;60.40;;;;;;7325068;19;9543;-62
2023/12/10 11:19:40;;;;;;;;;;;18.20;60.30;;;;;;7325702;19;9740;-62
2023/12/10 11:22:09;;;;;;;;;;;18.30;60.20;;;;;;7324376;19;9274;-62
2023/12/10 11:24:38;;;;;;;;;;;18.30;60.10;;;;;;7325781;19;9621;-62
2023/12/10 11:27:14;;;;;;;;;;;18.40;60.00;;;;;;7325223;19;10414;-62
2023/12/10 11:29:45;;;;;;;;;;;18.50;60.00;;;;;;7324782;19;9482;-62
2023/12/10 11:32:14;;;;;;;;;;;18.50;59.90;;;;;;7325042;19;9266;-62
2023/12/10 11:34:45;;;;;;;;;;;18.60;60.50;;;;;;7325323;19;9473;-62
2023/12/10 11:37:14;;;;;;;;;;;18.70;59.80;;;;;;7324582;19;9271;-62
2023/12/10 11:39:43;;;;;;;;;;;18.70;59.70;;;;;;7324658;19;10706;-62
2023/12/10 11:42:12;;;;;;;;;;;18.80;59.60;;;;;;7324920;19;9421;-62
2023/12/10 11:44:41;;;;;;;;;;;18.80;59.60;;;;;;7324495;19;9517;-62
2023/12/10 11:47:14;;;;;;;;;;;18.80;59.50;;;;;;7325427;19;9191;-62
2023/12/10 11:49:43;;;;;;;;;;;18.90;59.50;;;;;;7323765;19;9242;-62
2023/12/10 11:52:12;;;;;;;;;;;18.90;59.50;;;;;;7324850;19;9203;-62
2023/12/10 11:54:41;;;;;;;;;;;18.90;59.40;;;;;;7323422;19;9444;-62
2023/12/10 11:57:10;;;;;;;;;;;18.90;59.40;;;;;;7324801;19;9409;-61
2023/12/10 11:59:39;;;;;;;;;;;18.90;59.40;;;;;;7322517;19;9741;-61
2023/12/10 12:02:12;;;;;;;;;;;18.80;59.40;;;;;;7324619;19;9453;-61
2023/12/10 12:04:41;;;;;;;;;;;18.90;59.50;;;;;;7323894;19;9135;-62
2023/12/10 12:07:25;;;;;;;;;;;18.80;59.50;;;;;;7324040;19;9556;-61
2023/12/10 12:09:54;;;;;;;;;;;18.90;59.60;;;;;;7330658;19;9496;-61
2023/12/10 12:12:45;;;;;;;;;;;18.80;59.60;;;;;;7329517;19;9504;-61
2023/12/10 12:15:16;;;;;;;;;;;18.70;59.50;;;;;;7330299;19;9214;-61
2023/12/10 12:17:47;;;;;;;;;;;18.70;59.60;;;;;;7330389;19;9130;-61
2023/12/10 12:20:18;;;;;;;;;;;18.70;59.70;;;;;;7330188;19;10398;-61
2023/12/10 12:22:49;;;;;;;;;;;18.70;59.70;;;;;;7330231;19;9412;-61
2023/12/10 12:25:18;;;;;;;;;;;18.70;59.80;;;;;;7329858;19;9328;-61
2023/12/10 12:27:48;;;;;;;;;;;18.60;59.80;;;;;;7330158;19;10603;-61
2023/12/10 12:30:19;;;;;;;;;;;18.60;59.90;;;;;;7329674;19;9517;-61
2023/12/10 12:32:51;;;;;;;;;;;18.50;60.00;;;;;;7330402;19;9513;-61
2023/12/10 12:35:20;;;;;;;;;;;18.50;60.00;;;;;;7329626;19;9453;-61
2023/12/10 12:37:49;;;;;;;;;;;18.40;60.10;;;;;;7329810;19;9376;-61
2023/12/10 12:40:20;;;;;;;;;;;18.40;60.10;;;;;;7329834;19;9234;-61
2023/12/10 12:42:49;;;;;;;;;;;18.40;60.20;;;;;;7329822;19;9219;-61
2023/12/10 12:45:38;;;;;;;;;;;18.30;60.20;;;;;;7328261;19;9490;-61
2023/12/10 12:48:10;;;;;;;;;;;18.30;60.40;;;;;;7328655;19;9229;-61
2023/12/10 12:50:39;;;;;;;;;;;18.30;60.40;;;;;;7329322;19;9650;-61
2023/12/10 12:53:08;;;;;;;;;;;18.20;60.40;;;;;;7328802;19;9631;-61
2023/12/10 12:55:37;;;;;;;;;;;18.20;60.50;;;;;;7329599;19;9351;-61
2023/12/10 12:58:06;;;;;;;;;;;18.20;60.50;;;;;;7327934;19;10329;-61
2023/12/10 13:00:35;;;;;;;;;;;18.10;60.50;;;;;;7329584;19;9368;-61
2023/12/10 13:03:05;;;;;;;;;;;18.10;60.60;;;;;;7328457;19;9225;-61
2023/12/10 13:05:37;;;;;;;;;;;18.10;60.60;;;;;;7328336;19;9217;-61
2023/12/10 13:08:06;;;;;;;;;;;18.10;60.60;;;;;;7328570;19;9234;-61
2023/12/10 13:10:37;;;;;;;;;;;18.10;60.70;;;;;;7328304;19;9546;-61
2023/12/10 13:13:06;;;;;;;;;;;18.10;60.70;;;;;;7328772;19;9485;-61
2023/12/10 13:15:35;;;;;;;;;;;18.00;60.70;;;;;;7328012;19;9548;-61
2023/12/10 13:18:24;;;;;;;;;;;18.00;60.70;;;;;;7327336;19;9539;-61
2023/12/10 13:20:56;;;;;;;;;;;18.00;60.80;;;;;;7326036;19;9593;-61
2023/12/10 13:23:25;;;;;;;;;;;18.00;60.80;;;;;;7328104;19;9205;-61
2023/12/10 13:25:54;;;;;;;;;;;17.90;60.80;;;;;;7328771;19;9602;-61
2023/12/10 13:28:24;;;;;;;;;;;17.90;60.80;;;;;;7328016;19;9457;-61
2023/12/10 13:30:53;;;;;;;;;;;17.90;60.90;;;;;;7328220;19;9611;-61
2023/12/10 13:33:22;;;;;;;;;;;17.90;60.90;;;;;;7327579;19;9462;-61
2023/12/10 13:35:52;;;;;;;;;;;17.90;60.90;;;;;;7328591;19;9451;-61
2023/12/10 13:38:23;;;;;;;;;;;17.80;61.00;;;;;;7327665;19;9336;-61
2023/12/10 13:40:52;;;;;;;;;;;17.80;60.90;;;;;;7327962;19;9740;-61
2023/12/10 13:43:22;;;;;;;;;;;17.90;61.00;;;;;;7327511;19;9461;-61
2023/12/10 13:45:51;;;;;;;;;;;17.90;60.90;;;;;;7328046;19;9302;-61
2023/12/10 13:48:20;;;;;;;;;;;17.90;60.90;;;;;;7327184;19;10337;-61
2023/12/10 13:50:50;;;;;;;;;;;18.00;60.80;;;;;;7327325;19;9934;-61
2023/12/10 13:53:19;;;;;;;;;;;18.00;60.70;;;;;;7326956;19;9188;-61
2023/12/10 13:55:51;;;;;;;;;;;18.10;60.50;;;;;;7327756;19;9500;-61
2023/12/10 13:58:20;;;;;;;;;;;18.20;60.40;;;;;;7327098;19;9516;-61
2023/12/10 14:00:49;;;;;;;;;;;18.20;60.40;;;;;;7327448;19;9607;-60
2023/12/10 14:03:19;;;;;;;;;;;18.30;60.20;;;;;;7327513;19;9310;-61
2023/12/10 14:05:48;;;;;;;;;;;18.40;60.20;;;;;;7326664;19;9459;-61
2023/12/10 14:08:17;;;;;;;;;;;18.50;60.20;;;;;;7326995;19;9406;-61
2023/12/10 14:10:46;;;;;;;;;;;18.50;60.10;;;;;;7326547;19;9466;-62
2023/12/10 14:13:17;;;;;;;;;;;18.50;60.00;;;;;;7326972;19;9410;-62
2023/12/10 14:15:47;;;;;;;;;;;18.60;59.90;;;;;;7326426;19;9266;-61
2023/12/10 14:18:16;;;;;;;;;;;18.70;60.00;;;;;;7326622;19;9347;-61
2023/12/10 14:20:46;;;;;;;;;;;18.70;59.70;;;;;;7326208;19;9606;-61
2023/12/10 14:23:15;;;;;;;;;;;18.70;59.70;;;;;;7327105;19;10203;-62
2023/12/10 14:25:44;;;;;;;;;;;18.80;59.60;;;;;;7325856;19;9341;-62
2023/12/10 14:28:13;;;;;;;;;;;18.80;59.60;;;;;;7326920;19;9486;-62
2023/12/10 14:30:45;;;;;;;;;;;18.80;59.50;;;;;;7325837;19;9456;-61
2023/12/10 14:33:14;;;;;;;;;;;18.80;59.50;;;;;;7323675;19;9228;-62
2023/12/10 14:35:43;;;;;;;;;;;18.80;59.50;;;;;;7326529;19;9307;-61
2023/12/10 14:38:12;;;;;;;;;;;18.90;59.50;;;;;;7326014;19;9212;-62
2023/12/10 14:40:45;;;;;;;;;;;18.80;59.40;;;;;;7326825;19;9329;-61
2023/12/10 14:43:14;;;;;;;;;;;18.80;59.40;;;;;;7325956;19;9603;-62
2023/12/10 14:45:45;;;;;;;;;;;18.80;59.40;;;;;;7326101;19;9225;-61
2023/12/10 14:48:15;;;;;;;;;;;18.80;59.40;;;;;;7325123;19;9751;-62
2023/12/10 14:50:44;;;;;;;;;;;18.80;59.50;;;;;;7325990;19;9425;-62